Time;durP1;ratioP1;P1;durP2;ratioP2;P2;SDS_P1;SDS_P2;PMS_P1;PMS_P2;Temp;Humidity;BMP_temperature;BMP_pressure;BME280_temperature;BME280_humidity;BME280_pressure;Samples;Min_cycle;Max_cycle;Signal;HPM_P1;HPM_P2
2022/06/18 00:00:22;;;;;;;5.78;2.88;;;;;;;20.28;44.92;101274.28;4986803;28;20070;-81
2022/06/18 00:02:50;;;;;;;7.30;2.65;;;;;;;20.24;45.13;101274.53;4979589;28;20138;-80
2022/06/18 00:05:19;;;;;;;10.23;3.08;;;;;;;20.21;45.19;101265.94;4978891;28;20057;-79
2022/06/18 00:07:50;;;;;;;4.38;3.08;;;;;;;20.18;45.35;101267.09;4963001;28;20046;-77
2022/06/18 00:10:27;;;;;;;8.55;2.85;;;;;;;20.16;45.52;101260.16;4970345;28;20073;-80
2022/06/18 00:15:56;;;;;;;9.32;3.35;;;;;;;20.13;45.75;101260.47;4956254;28;20050;-79
2022/06/18 00:18:24;;;;;;;6.13;3.05;;;;;;;20.10;45.83;101253.56;4980885;28;20057;-79
2022/06/18 00:20:51;;;;;;;5.32;3.08;;;;;;;20.06;45.77;101254.81;4936856;28;20057;-79
2022/06/18 00:27:30;;;;;;;5.82;3.60;;;;;;;19.95;46.38;101246.91;4982452;28;20049;-80
2022/06/18 00:29:57;;;;;;;4.45;2.83;;;;;;;19.90;46.38;101244.66;4977911;28;20069;-80
2022/06/18 00:32:24;;;;;;;7.25;3.28;;;;;;;19.86;46.05;101237.03;4951521;28;20065;-79
2022/06/18 00:34:54;;;;;;;3.20;2.55;;;;;;;19.84;46.56;101241.66;4976019;28;20054;-80
2022/06/18 00:37:21;;;;;;;8.07;3.80;;;;;;;19.80;46.39;101243.75;4980666;28;20057;-80
2022/06/18 00:39:50;;;;;;;6.00;3.40;;;;;;;19.75;46.87;101232.63;4970204;28;20050;-79
2022/06/18 00:42:27;;;;;;;7.30;3.67;;;;;;;19.68;46.85;101227.00;4965643;28;20076;-78
2022/06/18 00:44:59;;;;;;;6.85;3.15;;;;;;;19.65;46.95;101223.72;4957769;28;20062;-79
2022/06/18 00:47:39;;;;;;;5.75;3.38;;;;;;;19.60;46.88;101229.47;4968462;28;20057;-79
2022/06/18 00:50:12;;;;;;;5.15;3.15;;;;;;;19.59;46.86;101224.25;4958069;28;20059;-80
2022/06/18 00:53:07;;;;;;;5.72;3.28;;;;;;;19.54;47.06;101215.75;4965888;28;20051;-79
2022/06/18 00:55:40;;;;;;;6.32;3.22;;;;;;;19.50;47.28;101212.53;4957342;28;20522;-81
2022/06/18 00:58:11;;;;;;;5.03;3.25;;;;;;;19.47;47.01;101218.13;4956250;28;20410;-80
2022/06/18 01:00:46;;;;;;;7.13;3.40;;;;;;;19.43;47.35;101214.03;4974394;28;20051;-79
2022/06/18 01:03:22;;;;;;;5.45;3.45;;;;;;;19.40;47.35;101211.63;4951765;28;20205;-79
2022/06/18 01:05:50;;;;;;;8.77;2.97;;;;;;;19.37;47.64;101210.09;4982483;28;20402;-78
2022/06/18 01:08:20;;;;;;;9.68;3.45;;;;;;;19.33;47.65;101203.31;4970095;28;20127;-79
2022/06/18 01:10:53;;;;;;;4.07;3.05;;;;;;;19.32;47.61;101206.09;4951619;28;20050;-81
2022/06/18 01:13:25;;;;;;;7.85;3.17;;;;;;;19.27;47.65;101206.50;4973855;28;20501;-78
2022/06/18 01:15:54;;;;;;;10.55;3.42;;;;;;;19.23;47.65;101202.44;4941139;28;20047;-79
2022/06/18 01:18:23;;;;;;;7.35;3.72;;;;;;;19.21;47.91;101197.22;4974770;28;20062;-79
2022/06/18 01:21:01;;;;;;;7.68;3.85;;;;;;;19.17;47.80;101197.59;4966446;28;20047;-79
2022/06/18 01:23:35;;;;;;;7.28;3.70;;;;;;;19.14;48.04;101190.72;4979056;28;20146;-80
2022/06/18 01:26:03;;;;;;;8.17;3.57;;;;;;;19.10;48.07;101185.78;4960286;28;20110;-80
2022/06/18 01:28:30;;;;;;;7.55;3.30;;;;;;;19.07;48.07;101186.88;4959279;28;20050;-79
2022/06/18 01:30:57;;;;;;;7.95;3.15;;;;;;;19.07;48.27;101191.38;4972118;28;20082;-80
2022/06/18 01:33:25;;;;;;;6.03;3.30;;;;;;;19.05;48.17;101185.31;4955425;28;20098;-77
2022/06/18 01:35:53;;;;;;;9.13;3.22;;;;;;;19.03;48.02;101177.44;4972876;28;20075;-79
2022/06/18 01:38:23;;;;;;;11.40;3.35;;;;;;;19.02;48.02;101186.44;4952682;28;20043;-81
2022/06/18 01:41:49;;;;;;;8.38;3.70;;;;;;;19.02;47.81;101178.44;4975555;28;20059;-79
2022/06/18 01:43:52;;;;;;;6.18;2.53;;;;;;;19.02;47.66;101174.91;4965348;28;20074;-78
2022/06/18 01:46:19;;;;;;;5.70;2.90;;;;;;;18.98;47.67;101167.16;4957915;28;20057;-80
2022/06/18 01:48:48;;;;;;;7.63;2.80;;;;;;;18.97;47.80;101164.63;4979412;28;20042;-79
2022/06/18 01:51:23;;;;;;;4.93;2.97;;;;;;;18.94;47.83;101160.41;4995991;28;20070;-79
2022/06/18 01:53:59;;;;;;;4.47;3.05;;;;;;;18.91;47.96;101152.69;4955834;28;20119;-80
2022/06/18 01:56:31;;;;;;;5.38;3.00;;;;;;;18.90;47.87;101156.28;4977296;28;20066;-79
2022/06/18 01:59:05;;;;;;;10.32;3.38;;;;;;;18.87;47.86;101145.06;4969343;28;20518;-79
2022/06/18 02:01:34;;;;;;;3.65;2.88;;;;;;;18.85;47.98;101141.66;4949950;28;20117;-80
2022/06/18 02:04:04;;;;;;;8.55;2.63;;;;;;;18.82;47.89;101148.13;4967070;28;20133;-81
2022/06/18 02:06:35;;;;;;;8.68;3.35;;;;;;;18.78;48.06;101145.81;4966397;28;20420;-81
2022/06/18 02:09:05;;;;;;;4.88;2.50;;;;;;;18.77;47.86;101141.47;4991781;28;20057;-79
2022/06/18 02:11:32;;;;;;;6.32;2.33;;;;;;;18.74;47.92;101137.25;4960434;28;20508;-78
2022/06/18 02:14:04;;;;;;;4.97;2.88;;;;;;;18.72;47.89;101133.84;4960922;28;20078;-80
2022/06/18 02:16:34;;;;;;;6.40;3.10;;;;;;;18.69;48.19;101124.31;4971623;28;20050;-79
2022/06/18 02:19:03;;;;;;;3.35;2.55;;;;;;;18.67;48.02;101125.38;4957944;28;20311;-79
2022/06/18 02:21:35;;;;;;;8.32;3.25;;;;;;;18.65;48.08;101122.84;4977641;28;20093;-79
2022/06/18 02:24:02;;;;;;;6.40;2.97;;;;;;;18.63;47.98;101121.28;4961029;28;20077;-78
2022/06/18 02:26:30;;;;;;;4.13;2.80;;;;;;;18.61;48.11;101123.25;4975613;28;20055;-80
2022/06/18 02:28:58;;;;;;;4.75;2.53;;;;;;;18.59;47.87;101118.03;4962969;28;20057;-80
2022/06/18 02:31:31;;;;;;;4.78;2.95;;;;;;;18.56;48.35;101115.63;4959868;28;20050;-80
2022/06/18 02:34:04;;;;;;;5.07;3.10;;;;;;;18.54;48.51;101114.91;4981291;28;20055;-78
2022/06/18 02:36:35;;;;;;;4.10;2.65;;;;;;;18.52;48.35;101118.69;4979435;28;20054;-80
2022/06/18 02:43:09;;;;;;;7.88;2.67;;;;;;;18.42;48.66;101115.97;4992216;28;20069;-79
2022/06/18 02:45:37;;;;;;;10.88;3.08;;;;;;;18.40;48.69;101108.06;4947920;28;20035;-79
2022/06/18 02:48:05;;;;;;;5.45;2.30;;;;;;;18.39;48.88;101109.06;4956070;28;20044;-79
2022/06/18 02:50:34;;;;;;;4.97;2.80;;;;;;;18.37;48.78;101105.69;4963285;28;20435;-79
2022/06/18 02:53:02;;;;;;;4.60;2.85;;;;;;;18.36;49.26;101105.78;4948619;28;20054;-79
2022/06/18 02:55:39;;;;;;;6.88;2.95;;;;;;;18.35;48.94;101104.09;4947180;28;20061;-79
2022/06/18 02:58:08;;;;;;;6.07;2.85;;;;;;;18.34;49.09;101100.59;4977144;28;20055;-78
2022/06/18 03:00:38;;;;;;;5.07;3.13;;;;;;;18.34;49.31;101091.75;4995650;23;20509;-57
2022/06/18 03:03:08;;;;;;;7.53;2.60;;;;;;;18.32;49.54;101091.88;4970209;28;20070;-57
2022/06/18 03:05:35;;;;;;;3.85;2.53;;;;;;;18.31;49.34;101089.34;4970761;28;20379;-58
2022/06/18 03:08:03;;;;;;;5.50;3.10;;;;;;;18.31;49.37;101090.19;4970641;28;20499;-57
2022/06/18 03:13:19;;;;;;;5.13;2.70;;;;;;;18.31;49.35;101097.34;4972221;28;20058;-56
2022/06/18 03:15:48;;;;;;;5.68;2.67;;;;;;;18.31;49.37;101087.53;4970316;28;20055;-56
2022/06/18 03:18:16;;;;;;;4.22;2.72;;;;;;;18.31;49.27;101086.69;4972123;28;20053;-55
2022/06/18 03:20:58;;;;;;;7.63;3.20;;;;;;;18.31;49.56;101087.53;4968987;28;20055;-59
2022/06/18 03:23:25;;;;;;;6.43;3.45;;;;;;;18.31;49.58;101087.53;4968299;28;20055;-57
2022/06/18 03:25:53;;;;;;;5.15;2.70;;;;;;;18.34;49.57;101083.75;4972600;28;20065;-57
2022/06/18 03:28:21;;;;;;;7.88;3.55;;;;;;;18.34;49.57;101073.94;4967076;28;20077;-59
2022/06/18 03:30:48;;;;;;;7.03;3.03;;;;;;;18.36;49.88;101079.97;4971391;28;20415;-55
2022/06/18 03:33:16;;;;;;;8.00;2.90;;;;;;;18.37;49.71;101071.03;4968316;28;20066;-58
2022/06/18 03:35:45;;;;;;;6.78;2.58;;;;;;;18.40;49.74;101076.09;4972381;28;20057;-57
2022/06/18 03:38:13;;;;;;;8.43;3.55;;;;;;;18.41;49.90;101066.25;4971773;28;20043;-54
2022/06/18 03:40:40;;;;;;;5.50;3.13;;;;;;;18.43;49.92;101056.34;4974348;28;20062;-57
2022/06/18 03:43:08;;;;;;;5.80;2.63;;;;;;;18.43;49.98;101053.66;4964606;28;20657;-54
2022/06/18 03:45:37;;;;;;;6.20;2.50;;;;;;;18.44;50.00;101056.19;4970430;28;20055;-54
2022/06/18 03:48:05;;;;;;;6.03;3.08;;;;;;;18.45;49.93;101052.53;4971660;28;20469;-57
2022/06/18 03:50:33;;;;;;;4.78;2.53;;;;;;;18.46;49.73;101056.03;4968880;28;20416;-55
2022/06/18 03:53:02;;;;;;;8.30;3.03;;;;;;;18.47;50.01;101055.09;4970059;28;20070;-57
2022/06/18 03:55:29;;;;;;;5.85;2.25;;;;;;;18.48;50.09;101052.28;4972814;28;20054;-56
2022/06/18 03:57:56;;;;;;;6.22;2.38;;;;;;;18.51;49.99;101053.00;4968259;28;20050;-54
2022/06/18 04:00:23;;;;;;;8.50;2.47;;;;;;;18.54;50.02;101045.56;4965114;28;20049;-57
2022/06/18 04:02:51;;;;;;;3.70;2.78;;;;;;;18.56;49.93;101042.81;4971192;28;20047;-58
2022/06/18 04:05:18;;;;;;;5.50;2.70;;;;;;;18.58;50.05;101041.69;4968835;28;20051;-54
2022/06/18 04:07:45;;;;;;;10.05;2.72;;;;;;;18.61;50.08;101033.41;4971079;28;20142;-54
2022/06/18 04:10:17;;;;;;;4.85;2.38;;;;;;;18.64;49.91;101038.50;4964077;28;20065;-57
2022/06/18 04:12:45;;;;;;;4.88;2.30;;;;;;;18.64;49.80;101035.84;4970946;28;20055;-57
2022/06/18 04:15:20;;;;;;;2.95;2.05;;;;;;;18.66;49.56;101020.53;4965301;28;20050;-56
2022/06/18 04:17:47;;;;;;;4.95;2.20;;;;;;;18.70;49.83;101026.47;4970879;28;20053;-53
2022/06/18 04:20:23;;;;;;;4.05;1.60;;;;;;;18.73;49.71;101028.84;4970341;28;20069;-55
2022/06/18 04:22:51;;;;;;;5.40;2.13;;;;;;;18.75;49.55;101015.41;4970211;28;20055;-56
2022/06/18 04:25:19;;;;;;;2.35;1.92;;;;;;;18.80;49.41;101023.84;4966893;28;20061;-58
2022/06/18 04:27:46;;;;;;;3.15;2.17;;;;;;;18.84;49.50;101014.59;4970412;28;20057;-52
2022/06/18 04:30:15;;;;;;;3.85;1.60;;;;;;;18.88;49.29;101008.03;4969840;28;20391;-56
2022/06/18 04:32:42;;;;;;;3.85;1.95;;;;;;;18.93;49.19;101011.13;4968173;28;20411;-59
2022/06/18 04:35:11;;;;;;;3.83;1.67;;;;;;;18.96;48.82;101008.22;4968973;28;20390;-56
2022/06/18 04:37:41;;;;;;;4.53;2.10;;;;;;;19.01;48.86;101003.31;4969519;28;20118;-58
2022/06/18 04:40:12;;;;;;;3.95;2.08;;;;;;;19.07;48.59;100994.75;4968358;28;20051;-52
2022/06/18 04:42:39;;;;;;;4.13;1.80;;;;;;;19.11;48.66;100998.81;4981563;28;20522;-59
2022/06/18 04:45:07;;;;;;;5.28;2.00;;;;;;;19.19;48.47;101004.34;4965338;28;20055;-58
2022/06/18 04:47:35;;;;;;;5.25;1.88;;;;;;;19.23;48.32;100999.56;4970619;28;20055;-59
2022/06/18 04:50:04;;;;;;;3.88;1.90;;;;;;;19.28;48.33;101001.81;4969244;28;20680;-55
2022/06/18 04:52:31;;;;;;;5.30;2.42;;;;;;;19.36;48.18;100993.94;4971056;28;20507;-54
2022/06/18 04:54:58;;;;;;;6.82;2.22;;;;;;;19.42;48.17;100998.75;4966058;28;20059;-56
2022/06/18 04:57:25;;;;;;;6.90;2.17;;;;;;;19.47;47.52;100991.16;4971405;28;20652;-57
2022/06/18 04:59:53;;;;;;;3.08;1.60;;;;;;;19.55;47.23;100994.00;4965648;28;20047;-57
2022/06/18 05:02:25;;;;;;;6.28;1.80;;;;;;;19.63;47.35;100986.16;4969721;28;20082;-54
2022/06/18 05:04:55;;;;;;;3.85;1.70;;;;;;;19.66;47.12;100980.53;4966811;28;20059;-57
2022/06/18 05:07:23;;;;;;;2.85;1.40;;;;;;;19.72;47.11;100988.00;4969423;28;20055;-57
2022/06/18 05:09:50;;;;;;;5.20;1.73;;;;;;;19.79;46.88;100985.59;4968496;28;20069;-60
2022/06/18 05:12:17;;;;;;;5.50;1.80;;;;;;;19.86;46.34;100984.06;4968725;28;20643;-57
2022/06/18 05:14:44;;;;;;;2.65;1.58;;;;;;;19.95;46.27;100985.03;4967935;28;20046;-54
2022/06/18 05:17:15;;;;;;;5.50;1.65;;;;;;;20.03;45.48;100979.78;4968176;28;20058;-57
2022/06/18 05:19:42;;;;;;;3.35;1.42;;;;;;;20.14;45.81;100978.81;4967713;28;20419;-55
2022/06/18 05:22:10;;;;;;;4.50;1.42;;;;;;;20.21;45.38;100974.56;4968606;28;20058;-59
2022/06/18 05:24:37;;;;;;;4.43;1.70;;;;;;;20.28;45.41;100973.00;4968386;28;20050;-56
2022/06/18 05:27:04;;;;;;;4.10;1.48;;;;;;;20.38;45.08;100972.97;4961776;28;20063;-57
2022/06/18 05:29:32;;;;;;;3.03;1.25;;;;;;;20.51;45.02;100983.38;4974565;28;20388;-60
2022/06/18 05:31:59;;;;;;;9.10;1.75;;;;;;;20.59;44.81;100979.00;4976047;28;20426;-58
2022/06/18 05:34:26;;;;;;;4.18;1.65;;;;;;;20.68;44.38;100974.59;4967517;28;20574;-61
2022/06/18 05:36:53;;;;;;;2.15;1.02;;;;;;;20.76;44.11;100969.34;4984204;28;20353;-55
2022/06/18 05:39:21;;;;;;;3.42;1.65;;;;;;;20.84;44.01;100971.25;4965282;28;20058;-55
2022/06/18 05:41:48;;;;;;;2.70;1.50;;;;;;;20.92;43.60;100966.00;4983069;28;20055;-57
2022/06/18 05:44:15;;;;;;;3.30;1.45;;;;;;;21.04;43.97;100967.50;4967917;28;20523;-58
2022/06/18 05:46:43;;;;;;;3.47;1.48;;;;;;;21.17;43.72;100967.16;4982352;28;20058;-56
2022/06/18 05:49:10;;;;;;;3.15;1.48;;;;;;;21.28;43.50;100956.22;4966147;28;20137;-57
2022/06/18 05:51:38;;;;;;;7.95;1.40;;;;;;;21.38;43.30;100959.69;4964555;28;20062;-56
2022/06/18 05:54:05;;;;;;;1.95;1.10;;;;;;;21.43;43.06;100965.44;4973118;28;20059;-56
2022/06/18 05:56:32;;;;;;;3.45;1.48;;;;;;;21.51;42.78;100959.31;4971097;28;20081;-57
2022/06/18 05:58:59;;;;;;;4.63;1.60;;;;;;;21.58;42.54;100964.91;4986078;28;20154;-55
2022/06/18 06:01:26;;;;;;;2.55;1.45;;;;;;;21.68;42.57;100969.19;4974633;28;20042;-57
2022/06/18 06:03:53;;;;;;;3.28;1.80;;;;;;;21.81;42.53;100963.44;4978126;28;20058;-56
2022/06/18 06:06:22;;;;;;;4.32;1.23;;;;;;;21.95;42.00;100967.41;4980874;28;20054;-58
2022/06/18 06:08:50;;;;;;;2.95;1.40;;;;;;;22.06;41.85;100959.09;4985742;28;20090;-57
2022/06/18 06:11:29;;;;;;;2.45;1.50;;;;;;;22.19;41.76;100953.34;4979664;28;20046;-56
2022/06/18 06:13:57;;;;;;;7.15;1.40;;;;;;;22.35;42.01;100956.13;4982698;28;20141;-58
2022/06/18 06:16:24;;;;;;;3.17;1.70;;;;;;;22.47;41.07;100952.19;4980561;28;20058;-57
2022/06/18 06:18:52;;;;;;;4.85;1.80;;;;;;;22.58;40.97;100958.28;4980212;28;20069;-58
2022/06/18 06:21:19;;;;;;;3.65;1.38;;;;;;;22.70;40.82;100951.63;4982543;28;20055;-59
2022/06/18 06:23:46;;;;;;;2.03;1.35;;;;;;;22.83;40.31;100948.47;4980331;28;20057;-56
2022/06/18 06:26:17;;;;;;;2.30;1.30;;;;;;;22.97;40.13;100947.91;4980809;28;20061;-56
2022/06/18 06:28:45;;;;;;;2.67;1.63;;;;;;;23.09;40.23;100946.56;4985059;28;20058;-59
2022/06/18 06:31:12;;;;;;;3.50;1.40;;;;;;;23.21;39.51;100939.06;4975717;28;20377;-58
2022/06/18 06:33:40;;;;;;;2.55;1.60;;;;;;;23.25;39.65;100941.25;4980214;28;20422;-57
2022/06/18 06:36:10;;;;;;;3.67;1.42;;;;;;;23.32;38.92;100940.56;4981127;28;20059;-56
2022/06/18 06:38:38;;;;;;;4.68;1.95;;;;;;;23.44;39.52;100941.94;4980999;28;20131;-58
2022/06/18 06:41:12;;;;;;;5.18;1.42;;;;;;;23.58;39.11;100935.06;4972373;28;20046;-57
2022/06/18 06:43:39;;;;;;;7.03;1.80;;;;;;;23.71;38.65;100930.88;4973422;28;20051;-58
2022/06/18 06:46:13;;;;;;;6.35;1.70;;;;;;;23.71;38.45;100922.81;4973195;28;20050;-56
2022/06/18 06:48:40;;;;;;;4.35;1.80;;;;;;;23.81;38.38;100932.56;4982979;28;20141;-57
2022/06/18 06:51:18;;;;;;;5.53;1.75;;;;;;;23.87;37.76;100929.22;4982731;28;20101;-58
2022/06/18 06:53:46;;;;;;;7.35;2.17;;;;;;;23.93;37.58;100917.78;4977483;28;20074;-59
2022/06/18 06:59:06;;;;;;;3.05;1.90;;;;;;;24.18;37.69;100919.41;4981963;28;20080;-59
2022/06/18 07:01:36;;;;;;;3.70;1.95;;;;;;;24.26;37.25;100922.06;4971926;28;20058;-59
2022/06/18 07:04:09;;;;;;;7.95;2.33;;;;;;;24.43;37.30;100914.81;4973101;28;20042;-59
2022/06/18 07:06:36;;;;;;;4.97;2.38;;;;;;;24.55;36.92;100922.53;4976662;28;20059;-57
2022/06/18 07:09:05;;;;;;;10.13;2.28;;;;;;;24.75;36.69;100908.44;4976761;28;20050;-59
2022/06/18 07:11:33;;;;;;;4.95;1.80;;;;;;;24.83;36.63;100904.06;4976346;28;20066;-58
2022/06/18 07:14:00;;;;;;;3.22;1.83;;;;;;;24.95;36.22;100902.66;4979785;28;20061;-58
2022/06/18 07:16:27;;;;;;;2.75;2.25;;;;;;;25.00;36.04;100898.41;4970036;28;20429;-59
2022/06/18 07:18:56;;;;;;;5.47;2.17;;;;;;;24.93;35.94;100900.09;4985313;28;20053;-57
2022/06/18 07:21:24;;;;;;;3.42;2.25;;;;;;;25.05;35.89;100905.09;4971757;28;20048;-58
2022/06/18 07:23:51;;;;;;;4.32;2.00;;;;;;;25.17;36.02;100893.78;4971891;28;20177;-58
2022/06/18 07:26:20;;;;;;;5.32;1.85;;;;;;;25.30;35.88;100889.63;4970538;28;20057;-59
2022/06/18 07:28:47;;;;;;;7.00;2.70;;;;;;;25.33;35.70;100905.44;4969908;28;20054;-59
2022/06/18 07:31:19;;;;;;;6.63;2.53;;;;;;;25.39;35.17;100896.63;4984339;28;20046;-60
2022/06/18 07:33:46;;;;;;;4.60;2.00;;;;;;;25.43;35.33;100887.16;4969314;28;20632;-60
2022/06/18 07:36:14;;;;;;;5.30;2.22;;;;;;;25.49;34.80;100895.38;4977283;28;20487;-59
2022/06/18 07:38:42;;;;;;;4.15;2.08;;;;;;;25.52;35.21;100894.16;4944911;29;20102;-57
2022/06/18 07:41:09;;;;;;;3.90;2.25;;;;;;;25.70;35.16;100889.28;4971175;28;20209;-60
2022/06/18 07:43:42;;;;;;;4.03;2.08;;;;;;;25.84;35.23;100890.34;4973775;28;20055;-54
2022/06/18 07:46:10;;;;;;;3.15;2.17;;;;;;;25.97;34.47;100881.63;4971061;28;20058;-58
2022/06/18 07:48:41;;;;;;;5.68;2.25;;;;;;;26.15;34.53;100881.28;4974918;28;20051;-59
2022/06/18 07:51:09;;;;;;;6.10;2.10;;;;;;;26.20;34.21;100874.28;4970858;28;20511;-58
2022/06/18 07:53:36;;;;;;;4.82;2.00;;;;;;;26.27;34.39;100875.22;4976795;28;20057;-57
2022/06/18 07:56:04;;;;;;;3.50;2.17;;;;;;;26.40;33.57;100869.19;4967609;28;20059;-55
2022/06/18 07:58:31;;;;;;;5.40;2.88;;;;;;;26.46;33.43;100865.75;4969783;28;20058;-55
2022/06/18 08:00:58;;;;;;;4.28;1.92;;;;;;;26.53;33.45;100862.31;4976124;28;20065;-59
2022/06/18 08:03:26;;;;;;;4.30;2.05;;;;;;;26.67;33.49;100869.53;4971459;28;20058;-56
2022/06/18 08:05:54;;;;;;;4.47;1.75;;;;;;;26.72;33.07;100862.53;4968217;28;20059;-57
2022/06/18 08:08:21;;;;;;;3.83;1.90;;;;;;;26.75;33.67;100859.47;4979635;28;20146;-60
2022/06/18 08:11:06;;;;;;;4.03;1.65;;;;;;;26.92;33.39;100848.41;4968784;28;20058;-59
2022/06/18 08:13:34;;;;;;;3.78;1.60;;;;;;;26.92;32.63;100851.09;4998220;28;20109;-58
2022/06/18 08:16:02;;;;;;;4.82;2.22;;;;;;;27.09;32.93;100840.91;4964900;28;20081;-57
2022/06/18 08:18:30;;;;;;;5.22;2.47;;;;;;;27.31;33.00;100844.44;4979991;28;20070;-56
2022/06/18 08:21:00;;;;;;;3.70;2.25;;;;;;;27.47;32.15;100842.31;4972651;28;20047;-56
2022/06/18 08:23:27;;;;;;;5.75;2.45;;;;;;;27.48;32.08;100832.34;4973656;28;20538;-57
2022/06/18 08:25:54;;;;;;;4.05;1.92;;;;;;;27.58;32.54;100827.41;4985963;28;20063;-57
2022/06/18 08:28:22;;;;;;;2.67;1.80;;;;;;;27.70;32.42;100820.44;4972077;28;20051;-56
2022/06/18 08:30:49;;;;;;;5.53;1.70;;;;;;;27.85;32.24;100830.34;4995888;22;20053;-78
2022/06/18 08:33:17;;;;;;;2.95;1.80;;;;;;;28.04;31.85;100826.91;4996988;28;20042;-79
2022/06/18 08:35:44;;;;;;;4.15;1.95;;;;;;;28.10;31.41;100833.38;5001165;28;20076;-79
2022/06/18 08:38:12;;;;;;;4.05;1.52;;;;;;;28.19;31.67;100813.22;4995373;28;20042;-79
2022/06/18 08:40:44;;;;;;;4.43;1.50;;;;;;;28.36;31.43;100816.44;4987734;28;20058;-78
2022/06/18 08:43:43;;;;;;;4.68;1.85;;;;;;;28.52;31.08;100816.09;4984734;28;20066;-79
2022/06/18 08:46:45;;;;;;;9.68;2.15;;;;;;;28.64;31.04;100822.63;4975386;28;20050;-79
2022/06/18 08:49:21;;;;;;;5.25;1.70;;;;;;;28.65;30.89;100818.03;4994802;28;20064;-79
2022/06/18 08:52:07;;;;;;;5.75;1.98;;;;;;;28.67;31.05;100822.19;4991219;28;20056;-79
2022/06/18 08:55:08;;;;;;;2.75;1.80;;;;;;;28.54;30.89;100819.44;4992668;28;20050;-78
2022/06/18 08:58:00;;;;;;;3.85;1.75;;;;;;;28.62;30.98;100810.28;4973793;28;20107;-79
2022/06/18 09:00:27;;;;;;;3.88;1.77;;;;;;;28.82;31.13;100800.34;4995588;28;20055;-78
2022/06/18 09:03:08;;;;;;;3.97;1.83;;;;;;;29.05;30.81;100804.59;4990061;28;20516;-78
2022/06/18 09:06:12;;;;;;;5.60;1.83;;;;;;;29.13;31.26;100798.94;4984687;28;20519;-78
2022/06/18 09:08:59;;;;;;;4.75;1.77;;;;;;;29.12;31.50;100795.41;4989078;28;20054;-79
2022/06/18 09:11:56;;;;;;;3.67;1.48;;;;;;;29.27;31.16;100785.19;4980216;28;20353;-79
2022/06/18 09:14:49;;;;;;;4.65;1.50;;;;;;;29.49;31.20;100793.91;4961156;28;20137;-78
2022/06/18 09:17:22;;;;;;;5.30;1.40;;;;;;;29.68;30.83;100789.56;4989830;28;20056;-78
2022/06/18 09:20:06;;;;;;;4.40;1.60;;;;;;;29.79;30.68;100788.06;4979637;28;20054;-79
2022/06/18 09:22:40;;;;;;;6.35;1.98;;;;;;;29.88;30.60;100788.66;4982936;28;20041;-77
2022/06/18 09:25:19;;;;;;;3.88;1.90;;;;;;;29.91;30.33;100777.38;4981485;28;20054;-77
2022/06/18 09:28:03;;;;;;;3.10;1.77;;;;;;;29.95;30.20;100784.06;4984653;28;20046;-77
2022/06/18 09:30:38;;;;;;;1.65;1.30;;;;;;;29.87;30.57;100787.00;4971167;28;20135;-77
2022/06/18 09:33:14;;;;;;;4.75;1.88;;;;;;;30.02;30.71;100787.56;4965978;28;20401;-76
2022/06/18 09:35:51;;;;;;;7.80;1.70;;;;;;;30.17;30.22;100773.75;4964282;28;20081;-76
2022/06/18 09:38:24;;;;;;;3.70;2.00;;;;;;;30.27;30.32;100796.69;4973592;28;20046;-76
2022/06/18 09:40:54;;;;;;;6.20;1.65;;;;;;;30.09;30.19;100776.69;5003184;28;20038;-76
2022/06/18 09:44:00;;;;;;;2.67;1.67;;;;;;;30.19;30.37;100772.50;4998103;28;20053;-77
2022/06/18 09:46:38;;;;;;;6.20;1.40;;;;;;;30.24;29.75;100769.13;4977843;28;20045;-77
2022/06/18 09:49:06;;;;;;;2.65;1.60;;;;;;;30.18;30.40;100770.84;4982345;28;20520;-77
2022/06/18 09:52:05;;;;;;;5.13;1.92;;;;;;;30.47;30.24;100774.84;4995363;28;20520;-75
2022/06/18 09:54:36;;;;;;;10.07;2.38;;;;;;;30.50;29.51;100763.56;4976439;28;20050;-76
2022/06/18 09:57:04;;;;;;;3.28;2.10;;;;;;;30.38;29.87;100756.31;4977653;28;20054;-77
2022/06/18 09:59:38;;;;;;;10.27;2.65;;;;;;;30.62;30.02;100757.41;4981562;28;20580;-77
2022/06/18 10:02:18;;;;;;;11.27;2.15;;;;;;;30.85;29.60;100767.78;4981086;28;20118;-77
2022/06/18 10:07:35;;;;;;;7.43;1.90;;;;;;;30.80;29.70;100760.25;4984886;28;20049;-77
2022/06/18 10:10:13;;;;;;;2.92;1.88;;;;;;;30.81;30.01;100761.09;4979670;28;20050;-77
2022/06/18 10:12:45;;;;;;;6.78;2.10;;;;;;;30.76;30.06;100757.16;4962682;28;20049;-77
2022/06/18 10:15:14;;;;;;;9.52;2.10;;;;;;;30.80;29.67;100768.41;4964659;28;20136;-77
2022/06/18 10:17:49;;;;;;;4.88;1.80;;;;;;;31.05;29.82;100779.31;4979801;28;20138;-77
2022/06/18 10:20:52;;;;;;;6.05;2.28;;;;;;;30.92;29.54;100760.38;4974739;28;20544;-76
2022/06/18 10:23:23;;;;;;;6.68;2.03;;;;;;;30.75;30.06;100747.31;4977276;28;20051;-77
2022/06/18 10:26:10;;;;;;;4.68;2.13;;;;;;;30.94;29.91;100759.13;4987232;28;20070;-77
2022/06/18 10:28:57;;;;;;;9.82;2.00;;;;;;;31.04;29.94;100746.91;4961638;28;20049;-78
2022/06/18 10:31:49;;;;;;;5.63;2.00;;;;;;;31.21;29.79;100753.47;4979427;28;20038;-75
2022/06/18 10:34:35;;;;;;;12.35;1.98;;;;;;;31.20;29.76;100749.88;4999835;28;20065;-77
2022/06/18 10:37:13;;;;;;;7.97;2.33;;;;;;;31.12;30.22;100744.75;4989745;28;20042;-78
2022/06/18 10:40:12;;;;;;;8.80;2.42;;;;;;;31.32;30.07;100751.91;4995734;28;20093;-77
2022/06/18 10:42:50;;;;;;;4.88;2.60;;;;;;;31.33;30.38;100761.75;5005227;28;20042;-79
2022/06/18 10:45:21;;;;;;;6.95;2.25;;;;;;;31.46;29.73;100739.84;4975522;28;20058;-77
2022/06/18 10:47:50;;;;;;;5.15;1.98;;;;;;;31.60;29.18;100735.09;4976949;28;20054;-78
2022/06/18 10:50:19;;;;;;;4.72;2.10;;;;;;;31.81;29.34;100731.09;4994060;28;20050;-79
2022/06/18 10:52:58;;;;;;;5.93;2.05;;;;;;;31.67;29.61;100730.41;4977152;28;20427;-77
2022/06/18 10:55:26;;;;;;;10.93;2.35;;;;;;;31.86;29.07;100731.28;4976841;28;20129;-78
2022/06/18 10:57:53;;;;;;;6.55;2.08;;;;;;;31.93;28.42;100732.03;4994474;28;20057;-78
2022/06/18 11:00:28;;;;;;;4.45;2.15;;;;;;;32.04;28.94;100724.97;4991727;28;20377;-78
2022/06/18 11:03:01;;;;;;;3.83;2.15;;;;;;;31.98;28.70;100713.94;4994977;28;20057;-77
2022/06/18 11:05:35;;;;;;;7.88;1.77;;;;;;;32.27;28.31;100715.00;4975139;28;20516;-78
2022/06/18 11:08:17;;;;;;;14.50;3.08;;;;;;;32.43;28.13;100723.63;4989045;28;20054;-76
2022/06/18 11:10:53;;;;;;;11.63;2.40;;;;;;;32.31;27.51;100729.00;4985146;28;20050;-75
2022/06/18 11:13:33;;;;;;;8.07;2.10;;;;;;;32.26;27.32;100715.25;4982216;28;20080;-77
2022/06/18 11:16:24;;;;;;;8.93;2.20;;;;;;;32.24;27.86;100715.47;4976854;28;20065;-77
2022/06/18 11:19:01;;;;;;;9.55;2.38;;;;;;;32.14;27.98;100725.25;4986921;28;20093;-77
2022/06/18 11:21:45;;;;;;;8.13;2.05;;;;;;;32.25;27.68;100703.50;4972849;28;20072;-77
2022/06/18 11:24:12;;;;;;;8.02;2.00;;;;;;;32.57;26.71;100692.38;4989411;28;20052;-77
2022/06/18 11:26:43;;;;;;;5.78;2.40;;;;;;;32.72;26.19;100722.75;4992088;28;20058;-77
2022/06/18 11:29:21;;;;;;;6.57;2.60;;;;;;;32.79;26.40;100711.75;4974343;28;20065;-77
2022/06/18 11:31:51;;;;;;;5.57;2.47;;;;;;;33.12;26.19;100705.75;4969469;28;20050;-78
2022/06/18 11:34:33;;;;;;;9.50;2.10;;;;;;;33.36;25.96;100705.72;4980052;28;20073;-78
2022/06/18 11:37:16;;;;;;;8.10;2.25;;;;;;;33.49;25.91;100706.31;4974095;28;20064;-76
2022/06/18 11:39:53;;;;;;;9.98;2.65;;;;;;;33.43;25.63;100710.03;4953253;28;20412;-77
2022/06/18 11:42:45;;;;;;;7.80;2.30;;;;;;;33.22;26.37;100708.69;4995402;28;20042;-76
2022/06/18 11:45:25;;;;;;;9.68;2.42;;;;;;;33.26;26.16;100696.25;4972887;28;20068;-78
2022/06/18 11:48:14;;;;;;;8.10;2.40;;;;;;;33.30;26.53;100703.97;4994224;28;20122;-77
2022/06/18 11:50:52;;;;;;;7.38;2.30;;;;;;;33.68;26.23;100689.78;4987606;28;20417;-78
2022/06/18 11:53:41;;;;;;;7.95;2.08;;;;;;;33.96;26.14;100689.03;4993088;28;20047;-78
2022/06/18 11:56:21;;;;;;;4.93;2.65;;;;;;;34.21;24.92;100703.16;4973398;28;20057;-78
2022/06/18 11:58:51;;;;;;;7.82;2.83;;;;;;;33.72;25.13;100701.88;4983518;28;20186;-76
2022/06/18 12:01:27;;;;;;;11.57;3.05;;;;;;;33.75;24.97;100685.03;4979836;28;20078;-77
2022/06/18 12:03:58;;;;;;;6.38;2.47;;;;;;;33.94;25.07;100685.69;5006509;28;20061;-77
2022/06/18 12:06:42;;;;;;;7.28;3.28;;;;;;;33.93;24.89;100693.03;4979867;28;20093;-77